sensor_id;sensor_type;location;lat;lon;timestamp;temperature;humidity
17007;DHT22;8620;51.168;4.154;2023-09-07T07:01:26;26.90;99.90
17007;DHT22;8620;51.168;4.154;2023-09-07T07:03:53;26.90;99.90
17007;DHT22;8620;51.168;4.154;2023-09-07T07:06:19;27.60;99.90
17007;DHT22;8620;51.168;4.154;2023-09-07T07:08:48;28.30;99.90
17007;DHT22;8620;51.168;4.154;2023-09-07T07:11:25;28.20;99.90
17007;DHT22;8620;51.168;4.154;2023-09-07T07:14:12;27.90;99.90
17007;DHT22;8620;51.168;4.154;2023-09-07T07:16:44;27.60;99.90
17007;DHT22;8620;51.168;4.154;2023-09-07T07:19:18;27.20;99.90
17007;DHT22;8620;51.168;4.154;2023-09-07T07:21:53;26.90;99.90
17007;DHT22;8620;51.168;4.154;2023-09-07T07:24:22;27.10;99.90
17007;DHT22;8620;51.168;4.154;2023-09-07T07:26:48;27.30;99.90
17007;DHT22;8620;51.168;4.154;2023-09-07T07:29:19;27.50;99.90
17007;DHT22;8620;51.168;4.154;2023-09-07T07:31:54;27.60;99.90
17007;DHT22;8620;51.168;4.154;2023-09-07T07:34:32;28.00;99.90
17007;DHT22;8620;51.168;4.154;2023-09-07T07:37:05;28.10;99.90
17007;DHT22;8620;51.168;4.154;2023-09-07T07:39:36;27.90;99.90
17007;DHT22;8620;51.168;4.154;2023-09-07T07:42:05;28.20;99.90
17007;DHT22;8620;51.168;4.154;2023-09-07T07:44:55;28.50;99.90
17007;DHT22;8620;51.168;4.154;2023-09-07T07:47:35;28.80;99.90
17007;DHT22;8620;51.168;4.154;2023-09-07T07:50:05;28.80;99.90
17007;DHT22;8620;51.168;4.154;2023-09-07T07:52:35;28.90;99.90
17007;DHT22;8620;51.168;4.154;2023-09-07T07:55:07;28.50;99.90
17007;DHT22;8620;51.168;4.154;2023-09-07T07:57:39;28.70;99.90
17007;DHT22;8620;51.168;4.154;2023-09-07T08:00:14;29.20;99.90
17007;DHT22;8620;51.168;4.154;2023-09-07T08:02:40;29.10;99.90
17007;DHT22;8620;51.168;4.154;2023-09-07T08:05:27;29.40;99.90
17007;DHT22;8620;51.168;4.154;2023-09-07T08:07:53;29.60;99.90
17007;DHT22;8620;51.168;4.154;2023-09-07T08:10:19;28.70;99.90
17007;DHT22;8620;51.168;4.154;2023-09-07T08:12:48;28.00;99.90
17007;DHT22;8620;51.168;4.154;2023-09-07T08:15:24;27.50;99.90
17007;DHT22;8620;51.168;4.154;2023-09-07T08:17:54;28.00;99.90
17007;DHT22;8620;51.168;4.154;2023-09-07T08:20:32;28.30;99.90
17007;DHT22;8620;51.168;4.154;2023-09-07T08:23:08;28.90;99.90
17007;DHT22;8620;51.168;4.154;2023-09-07T08:25:44;28.60;99.90
17007;DHT22;8620;51.168;4.154;2023-09-07T08:28:13;28.80;99.90
17007;DHT22;8620;51.168;4.154;2023-09-07T08:30:48;28.70;99.90
17007;DHT22;8620;51.168;4.154;2023-09-07T08:33:23;28.30;99.90
17007;DHT22;8620;51.168;4.154;2023-09-07T08:35:58;29.00;99.90
17007;DHT22;8620;51.168;4.154;2023-09-07T08:38:33;29.50;99.90
17007;DHT22;8620;51.168;4.154;2023-09-07T08:41:09;29.70;99.90
17007;DHT22;8620;51.168;4.154;2023-09-07T08:43:52;29.90;99.90
17007;DHT22;8620;51.168;4.154;2023-09-07T08:46:27;30.20;99.90
17007;DHT22;8620;51.168;4.154;2023-09-07T08:48:56;30.50;99.90
17007;DHT22;8620;51.168;4.154;2023-09-07T08:51:25;30.50;99.90
17007;DHT22;8620;51.168;4.154;2023-09-07T08:53:57;30.50;99.90
17007;DHT22;8620;51.168;4.154;2023-09-07T08:56:26;30.60;99.90
17007;DHT22;8620;51.168;4.154;2023-09-07T08:59:04;30.60;99.90
17007;DHT22;8620;51.168;4.154;2023-09-07T09:01:34;31.10;99.90
17007;DHT22;8620;51.168;4.154;2023-09-07T09:04:25;30.80;99.90
17007;DHT22;8620;51.168;4.154;2023-09-07T09:06:56;30.90;99.90
17007;DHT22;8620;51.168;4.154;2023-09-07T09:09:28;30.50;99.90
17007;DHT22;8620;51.168;4.154;2023-09-07T09:12:10;30.00;99.90
17007;DHT22;8620;51.168;4.154;2023-09-07T09:14:58;29.90;99.90
17007;DHT22;8620;51.168;4.154;2023-09-07T09:17:32;30.10;99.90
17007;DHT22;8620;51.168;4.154;2023-09-07T09:19:58;30.30;99.90
17007;DHT22;8620;51.168;4.154;2023-09-07T09:22:35;30.30;99.90
17007;DHT22;8620;51.168;4.154;2023-09-07T09:25:04;30.50;99.90
17007;DHT22;8620;51.168;4.154;2023-09-07T09:27:39;30.70;99.90
17007;DHT22;8620;51.168;4.154;2023-09-07T09:30:05;30.80;99.90
17007;DHT22;8620;51.168;4.154;2023-09-07T09:32:35;29.90;99.90
17007;DHT22;8620;51.168;4.154;2023-09-07T09:35:06;29.80;99.90
17007;DHT22;8620;51.168;4.154;2023-09-07T09:37:48;29.50;99.90
17007;DHT22;8620;51.168;4.154;2023-09-07T09:40:17;29.80;99.90
17007;DHT22;8620;51.168;4.154;2023-09-07T09:42:47;30.40;99.90
17007;DHT22;8620;51.168;4.154;2023-09-07T09:45:17;30.10;99.90
17007;DHT22;8620;51.168;4.154;2023-09-07T09:47:47;30.40;99.90
17007;DHT22;8620;51.168;4.154;2023-09-07T09:50:19;30.70;99.90
17007;DHT22;8620;51.168;4.154;2023-09-07T09:52:48;30.90;99.90
17007;DHT22;8620;51.168;4.154;2023-09-07T09:55:27;31.30;99.90
17007;DHT22;8620;51.168;4.154;2023-09-07T09:57:56;31.20;99.90
17007;DHT22;8620;51.168;4.154;2023-09-07T10:00:31;31.50;99.90
17007;DHT22;8620;51.168;4.154;2023-09-07T10:03:05;31.60;99.90
17007;DHT22;8620;51.168;4.154;2023-09-07T10:05:36;31.90;99.90
17007;DHT22;8620;51.168;4.154;2023-09-07T10:08:12;31.80;99.90
17007;DHT22;8620;51.168;4.154;2023-09-07T10:10:46;31.90;99.90
17007;DHT22;8620;51.168;4.154;2023-09-07T10:13:16;32.10;99.90
17007;DHT22;8620;51.168;4.154;2023-09-07T10:16:07;32.00;99.90
17007;DHT22;8620;51.168;4.154;2023-09-07T10:18:44;32.30;99.90
17007;DHT22;8620;51.168;4.154;2023-09-07T10:33:27;30.50;99.90
17007;DHT22;8620;51.168;4.154;2023-09-07T10:35:57;30.90;99.90
17007;DHT22;8620;51.168;4.154;2023-09-07T10:38:28;30.90;99.90
17007;DHT22;8620;51.168;4.154;2023-09-07T10:41:08;31.30;99.90
17007;DHT22;8620;51.168;4.154;2023-09-07T10:43:34;31.60;99.90
17007;DHT22;8620;51.168;4.154;2023-09-07T10:46:05;32.10;99.90
17007;DHT22;8620;51.168;4.154;2023-09-07T10:48:51;32.20;99.90
17007;DHT22;8620;51.168;4.154;2023-09-07T10:51:53;32.10;99.90
17007;DHT22;8620;51.168;4.154;2023-09-07T10:54:55;32.60;99.90
17007;DHT22;8620;51.168;4.154;2023-09-07T10:57:23;32.10;99.90
17007;DHT22;8620;51.168;4.154;2023-09-07T10:59:57;31.10;99.90
17007;DHT22;8620;51.168;4.154;2023-09-07T11:02:29;30.20;99.90
17007;DHT22;8620;51.168;4.154;2023-09-07T11:08:25;30.90;99.90
17007;DHT22;8620;51.168;4.154;2023-09-07T11:11:13;31.50;99.90
17007;DHT22;8620;51.168;4.154;2023-09-07T11:14:06;31.90;99.90
17007;DHT22;8620;51.168;4.154;2023-09-07T11:16:40;31.30;99.90
17007;DHT22;8620;51.168;4.154;2023-09-07T11:19:16;31.40;99.90
17007;DHT22;8620;51.168;4.154;2023-09-07T11:22:01;31.10;99.90
17007;DHT22;8620;51.168;4.154;2023-09-07T11:24:39;31.30;99.90
17007;DHT22;8620;51.168;4.154;2023-09-07T11:27:13;30.80;99.90
17007;DHT22;8620;51.168;4.154;2023-09-07T11:29:55;31.20;99.90
17007;DHT22;8620;51.168;4.154;2023-09-07T11:32:34;31.70;99.90
17007;DHT22;8620;51.168;4.154;2023-09-07T11:35:33;32.10;99.90
17007;DHT22;8620;51.168;4.154;2023-09-07T11:38:19;32.10;99.90
17007;DHT22;8620;51.168;4.154;2023-09-07T11:41:08;31.80;99.90
17007;DHT22;8620;51.168;4.154;2023-09-07T11:43:48;31.30;99.90
17007;DHT22;8620;51.168;4.154;2023-09-07T11:46:42;31.30;99.90
17007;DHT22;8620;51.168;4.154;2023-09-07T11:49:09;31.30;99.90
17007;DHT22;8620;51.168;4.154;2023-09-07T11:51:36;31.30;99.90
17007;DHT22;8620;51.168;4.154;2023-09-07T11:54:34;31.20;99.90
17007;DHT22;8620;51.168;4.154;2023-09-07T11:57:05;31.10;99.90
17007;DHT22;8620;51.168;4.154;2023-09-07T11:59:37;31.20;99.90
17007;DHT22;8620;51.168;4.154;2023-09-07T12:02:30;30.50;99.90
17007;DHT22;8620;51.168;4.154;2023-09-07T12:05:02;30.50;99.90
17007;DHT22;8620;51.168;4.154;2023-09-07T12:08:04;30.30;99.90
17007;DHT22;8620;51.168;4.154;2023-09-07T12:10:37;30.30;99.90
17007;DHT22;8620;51.168;4.154;2023-09-07T12:13:05;30.40;99.90
17007;DHT22;8620;51.168;4.154;2023-09-07T12:15:48;30.60;99.90
17007;DHT22;8620;51.168;4.154;2023-09-07T12:18:30;30.60;99.90
17007;DHT22;8620;51.168;4.154;2023-09-07T12:21:22;30.50;99.90
17007;DHT22;8620;51.168;4.154;2023-09-07T12:24:08;30.60;99.90
17007;DHT22;8620;51.168;4.154;2023-09-07T12:26:41;30.80;99.90
17007;DHT22;8620;51.168;4.154;2023-09-07T12:29:10;30.70;99.90
17007;DHT22;8620;51.168;4.154;2023-09-07T12:31:41;30.80;99.90
17007;DHT22;8620;51.168;4.154;2023-09-07T12:34:14;30.60;99.90
17007;DHT22;8620;51.168;4.154;2023-09-07T12:36:41;30.90;99.90
17007;DHT22;8620;51.168;4.154;2023-09-07T12:39:22;31.00;99.90
17007;DHT22;8620;51.168;4.154;2023-09-07T12:42:19;31.20;99.90
17007;DHT22;8620;51.168;4.154;2023-09-07T12:44:50;30.60;99.90
17007;DHT22;8620;51.168;4.154;2023-09-07T12:47:36;30.10;99.90
17007;DHT22;8620;51.168;4.154;2023-09-07T12:50:05;30.30;99.90
17007;DHT22;8620;51.168;4.154;2023-09-07T12:52:49;30.50;99.90
17007;DHT22;8620;51.168;4.154;2023-09-07T12:55:44;30.80;99.90
17007;DHT22;8620;51.168;4.154;2023-09-07T12:58:13;31.00;99.90
17007;DHT22;8620;51.168;4.154;2023-09-07T13:01:11;31.00;99.90
17007;DHT22;8620;51.168;4.154;2023-09-07T13:03:46;31.20;99.90
17007;DHT22;8620;51.168;4.154;2023-09-07T13:06:19;30.90;99.90
17007;DHT22;8620;51.168;4.154;2023-09-07T13:09:06;30.50;99.90
17007;DHT22;8620;51.168;4.154;2023-09-07T13:11:42;30.80;99.90
17007;DHT22;8620;51.168;4.154;2023-09-07T13:14:08;31.10;99.90
17007;DHT22;8620;51.168;4.154;2023-09-07T13:16:46;31.20;99.90
17007;DHT22;8620;51.168;4.154;2023-09-07T13:19:47;31.20;99.90
17007;DHT22;8620;51.168;4.154;2023-09-07T13:22:48;31.30;99.90
17007;DHT22;8620;51.168;4.154;2023-09-07T13:25:17;30.90;99.90
17007;DHT22;8620;51.168;4.154;2023-09-07T13:28:21;31.10;99.90
17007;DHT22;8620;51.168;4.154;2023-09-07T13:30:55;31.20;99.90
17007;DHT22;8620;51.168;4.154;2023-09-07T13:33:24;31.00;99.90
17007;DHT22;8620;51.168;4.154;2023-09-07T13:36:11;31.10;99.90
17007;DHT22;8620;51.168;4.154;2023-09-07T13:38:45;31.10;99.90
17007;DHT22;8620;51.168;4.154;2023-09-07T13:41:23;31.30;99.90
17007;DHT22;8620;51.168;4.154;2023-09-07T13:43:58;31.30;99.90
17007;DHT22;8620;51.168;4.154;2023-09-07T13:46:27;30.80;99.90
17007;DHT22;8620;51.168;4.154;2023-09-07T13:48:57;30.90;99.90
17007;DHT22;8620;51.168;4.154;2023-09-07T13:51:43;31.00;99.90
17007;DHT22;8620;51.168;4.154;2023-09-07T13:54:19;31.10;99.90
17007;DHT22;8620;51.168;4.154;2023-09-07T13:56:54;31.20;99.90
17007;DHT22;8620;51.168;4.154;2023-09-07T13:59:20;31.20;99.90
17007;DHT22;8620;51.168;4.154;2023-09-07T14:01:59;31.10;99.90
17007;DHT22;8620;51.168;4.154;2023-09-07T14:04:25;30.90;99.90
17007;DHT22;8620;51.168;4.154;2023-09-07T14:07:10;30.80;99.90
17007;DHT22;8620;51.168;4.154;2023-09-07T14:09:44;30.90;99.90
17007;DHT22;8620;51.168;4.154;2023-09-07T14:12:18;30.80;99.90
17007;DHT22;8620;51.168;4.154;2023-09-07T14:14:52;30.90;99.90
17007;DHT22;8620;51.168;4.154;2023-09-07T14:17:27;30.70;99.90
17007;DHT22;8620;51.168;4.154;2023-09-07T14:19:59;30.90;99.90
17007;DHT22;8620;51.168;4.154;2023-09-07T14:22:36;30.90;99.90
17007;DHT22;8620;51.168;4.154;2023-09-07T14:25:09;30.60;99.90
17007;DHT22;8620;51.168;4.154;2023-09-07T14:28:03;30.70;99.90
17007;DHT22;8620;51.168;4.154;2023-09-07T14:31:00;30.70;99.90
17007;DHT22;8620;51.168;4.154;2023-09-07T14:33:36;30.90;99.90
17007;DHT22;8620;51.168;4.154;2023-09-07T14:36:12;30.70;99.90
17007;DHT22;8620;51.168;4.154;2023-09-07T14:38:58;30.60;99.90
17007;DHT22;8620;51.168;4.154;2023-09-07T14:41:39;30.50;99.90
17007;DHT22;8620;51.168;4.154;2023-09-07T14:44:17;30.60;99.90
17007;DHT22;8620;51.168;4.154;2023-09-07T14:46:54;30.60;99.90
17007;DHT22;8620;51.168;4.154;2023-09-07T14:49:20;30.60;99.90
17007;DHT22;8620;51.168;4.154;2023-09-07T14:51:49;30.50;99.90
17007;DHT22;8620;51.168;4.154;2023-09-07T14:54:18;30.30;99.90
17007;DHT22;8620;51.168;4.154;2023-09-07T14:56:52;30.20;99.90
17007;DHT22;8620;51.168;4.154;2023-09-07T14:59:37;30.40;99.90
17007;DHT22;8620;51.168;4.154;2023-09-07T15:02:29;30.70;99.90
17007;DHT22;8620;51.168;4.154;2023-09-07T15:04:57;30.50;99.90
17007;DHT22;8620;51.168;4.154;2023-09-07T15:07:36;30.50;99.90
17007;DHT22;8620;51.168;4.154;2023-09-07T15:10:02;30.50;99.90
17007;DHT22;8620;51.168;4.154;2023-09-07T15:12:38;30.40;99.90
17007;DHT22;8620;51.168;4.154;2023-09-07T15:15:17;30.40;99.90
17007;DHT22;8620;51.168;4.154;2023-09-07T15:17:51;30.50;99.90
17007;DHT22;8620;51.168;4.154;2023-09-07T15:20:17;30.50;99.90
17007;DHT22;8620;51.168;4.154;2023-09-07T15:22:46;30.40;99.90
17007;DHT22;8620;51.168;4.154;2023-09-07T15:25:15;30.60;99.90
17007;DHT22;8620;51.168;4.154;2023-09-07T15:27:46;30.70;99.90
17007;DHT22;8620;51.168;4.154;2023-09-07T15:30:15;30.50;99.90
17007;DHT22;8620;51.168;4.154;2023-09-07T15:32:41;30.70;99.90
17007;DHT22;8620;51.168;4.154;2023-09-07T15:35:10;30.30;99.90
17007;DHT22;8620;51.168;4.154;2023-09-07T15:37:36;30.30;99.90
17007;DHT22;8620;51.168;4.154;2023-09-07T15:40:03;30.50;99.90
17007;DHT22;8620;51.168;4.154;2023-09-07T15:42:30;30.80;99.90
17007;DHT22;8620;51.168;4.154;2023-09-07T15:44:59;31.00;99.90
17007;DHT22;8620;51.168;4.154;2023-09-07T15:47:25;30.80;99.90
17007;DHT22;8620;51.168;4.154;2023-09-07T15:49:57;30.90;99.90
17007;DHT22;8620;51.168;4.154;2023-09-07T15:52:26;30.80;99.90
17007;DHT22;8620;51.168;4.154;2023-09-07T15:54:57;30.70;99.90
17007;DHT22;8620;51.168;4.154;2023-09-07T15:57:36;30.60;99.90
17007;DHT22;8620;51.168;4.154;2023-09-07T16:00:16;30.50;99.90
17007;DHT22;8620;51.168;4.154;2023-09-07T16:02:46;30.70;99.90
17007;DHT22;8620;51.168;4.154;2023-09-07T16:05:19;30.50;99.90
17007;DHT22;8620;51.168;4.154;2023-09-07T16:07:54;30.30;99.90
17007;DHT22;8620;51.168;4.154;2023-09-07T16:10:20;30.60;99.90
17007;DHT22;8620;51.168;4.154;2023-09-07T16:12:50;30.70;99.90
17007;DHT22;8620;51.168;4.154;2023-09-07T16:15:18;30.60;99.90
17007;DHT22;8620;51.168;4.154;2023-09-07T16:17:48;30.40;99.90
17007;DHT22;8620;51.168;4.154;2023-09-07T16:20:16;30.30;99.90
17007;DHT22;8620;51.168;4.154;2023-09-07T16:22:42;30.30;99.90
17007;DHT22;8620;51.168;4.154;2023-09-07T16:25:11;30.20;99.90
17007;DHT22;8620;51.168;4.154;2023-09-07T16:27:37;30.20;99.90
17007;DHT22;8620;51.168;4.154;2023-09-07T16:30:09;30.40;99.90
17007;DHT22;8620;51.168;4.154;2023-09-07T16:32:36;30.70;99.90
17007;DHT22;8620;51.168;4.154;2023-09-07T16:35:06;30.70;99.90
17007;DHT22;8620;51.168;4.154;2023-09-07T16:37:36;30.70;99.90
17007;DHT22;8620;51.168;4.154;2023-09-07T16:40:10;30.80;99.90
17007;DHT22;8620;51.168;4.154;2023-09-07T16:42:36;30.80;99.90
17007;DHT22;8620;51.168;4.154;2023-09-07T16:45:12;30.70;99.90
17007;DHT22;8620;51.168;4.154;2023-09-07T16:47:38;30.50;99.90
17007;DHT22;8620;51.168;4.154;2023-09-07T16:50:07;30.70;99.90
17007;DHT22;8620;51.168;4.154;2023-09-07T16:52:34;30.80;99.90
17007;DHT22;8620;51.168;4.154;2023-09-07T16:55:10;30.80;99.90
17007;DHT22;8620;51.168;4.154;2023-09-07T16:57:38;30.80;99.90
17007;DHT22;8620;51.168;4.154;2023-09-07T17:00:22;30.90;99.90
17007;DHT22;8620;51.168;4.154;2023-09-07T17:02:54;30.60;99.90
17007;DHT22;8620;51.168;4.154;2023-09-07T17:06:01;30.50;99.90
17007;DHT22;8620;51.168;4.154;2023-09-07T17:08:28;30.70;99.90
17007;DHT22;8620;51.168;4.154;2023-09-07T17:10:59;30.60;99.90
17007;DHT22;8620;51.168;4.154;2023-09-07T17:13:45;30.60;99.90
17007;DHT22;8620;51.168;4.154;2023-09-07T17:16:26;30.70;99.90
17007;DHT22;8620;51.168;4.154;2023-09-07T17:19:00;30.80;99.90
17007;DHT22;8620;51.168;4.154;2023-09-07T17:21:42;30.50;99.90
17007;DHT22;8620;51.168;4.154;2023-09-07T17:24:36;30.50;99.90
17007;DHT22;8620;51.168;4.154;2023-09-07T17:27:26;30.50;99.90
17007;DHT22;8620;51.168;4.154;2023-09-07T17:29:55;30.40;99.90
17007;DHT22;8620;51.168;4.154;2023-09-07T17:32:42;30.40;99.90
17007;DHT22;8620;51.168;4.154;2023-09-07T17:35:39;30.40;99.90
17007;DHT22;8620;51.168;4.154;2023-09-07T17:38:32;30.30;99.90
17007;DHT22;8620;51.168;4.154;2023-09-07T17:41:32;30.10;99.90
17007;DHT22;8620;51.168;4.154;2023-09-07T17:44:06;30.00;99.90
17007;DHT22;8620;51.168;4.154;2023-09-07T17:47:01;29.90;99.90
17007;DHT22;8620;51.168;4.154;2023-09-07T17:49:41;29.90;99.90
17007;DHT22;8620;51.168;4.154;2023-09-07T17:52:28;29.80;99.90
17007;DHT22;8620;51.168;4.154;2023-09-07T17:55:10;29.50;99.90
17007;DHT22;8620;51.168;4.154;2023-09-07T17:57:42;29.40;99.90
17007;DHT22;8620;51.168;4.154;2023-09-07T18:00:47;29.20;99.90
17007;DHT22;8620;51.168;4.154;2023-09-07T18:03:13;29.20;99.90
17007;DHT22;8620;51.168;4.154;2023-09-07T18:06:02;29.20;99.90
17007;DHT22;8620;51.168;4.154;2023-09-07T18:12:16;29.20;99.90
17007;DHT22;8620;51.168;4.154;2023-09-07T18:15:29;28.90;99.90
17007;DHT22;8620;51.168;4.154;2023-09-07T18:18:15;28.80;99.90
17007;DHT22;8620;51.168;4.154;2023-09-07T18:21:19;28.80;99.90
17007;DHT22;8620;51.168;4.154;2023-09-07T18:24:31;28.90;99.90
17007;DHT22;8620;51.168;4.154;2023-09-07T18:27:12;28.70;99.90
17007;DHT22;8620;51.168;4.154;2023-09-07T18:30:09;28.60;99.90
17007;DHT22;8620;51.168;4.154;2023-09-07T18:33:04;28.50;99.90
17007;DHT22;8620;51.168;4.154;2023-09-07T18:36:14;28.50;99.90
17007;DHT22;8620;51.168;4.154;2023-09-07T18:38:50;28.40;99.90
17007;DHT22;8620;51.168;4.154;2023-09-07T18:45:08;28.10;99.90
17007;DHT22;8620;51.168;4.154;2023-09-07T18:48:24;28.10;99.90
17007;DHT22;8620;51.168;4.154;2023-09-07T18:51:48;28.00;99.90
17007;DHT22;8620;51.168;4.154;2023-09-07T18:57:43;27.50;99.90
17007;DHT22;8620;51.168;4.154;2023-09-07T19:00:36;27.40;99.90
17007;DHT22;8620;51.168;4.154;2023-09-07T19:03:43;27.40;99.90
17007;DHT22;8620;51.168;4.154;2023-09-07T19:06:44;27.30;99.90
17007;DHT22;8620;51.168;4.154;2023-09-07T19:09:25;27.30;99.90
17007;DHT22;8620;51.168;4.154;2023-09-07T19:12:23;27.40;99.90
17007;DHT22;8620;51.168;4.154;2023-09-07T19:14:55;27.50;99.90
17007;DHT22;8620;51.168;4.154;2023-09-07T19:18:14;27.40;99.90
17007;DHT22;8620;51.168;4.154;2023-09-07T19:20:56;27.60;99.90
17007;DHT22;8620;51.168;4.154;2023-09-07T19:23:37;27.30;99.90
17007;DHT22;8620;51.168;4.154;2023-09-07T19:29:03;27.30;99.90
17007;DHT22;8620;51.168;4.154;2023-09-07T19:31:48;27.30;99.90
17007;DHT22;8620;51.168;4.154;2023-09-07T19:34:20;27.30;99.90
17007;DHT22;8620;51.168;4.154;2023-09-07T19:36:54;27.10;99.90
17007;DHT22;8620;51.168;4.154;2023-09-07T19:39:36;27.10;99.90
17007;DHT22;8620;51.168;4.154;2023-09-07T19:42:31;27.30;99.90
17007;DHT22;8620;51.168;4.154;2023-09-07T19:45:31;27.10;99.90
17007;DHT22;8620;51.168;4.154;2023-09-07T19:48:06;26.90;99.90
17007;DHT22;8620;51.168;4.154;2023-09-07T19:59:12;26.50;99.90
17007;DHT22;8620;51.168;4.154;2023-09-07T20:05:26;26.10;99.90
17007;DHT22;8620;51.168;4.154;2023-09-07T20:14:57;26.30;99.90
17007;DHT22;8620;51.168;4.154;2023-09-07T20:18:42;26.40;99.90
17007;DHT22;8620;51.168;4.154;2023-09-07T20:21:24;26.40;99.90
17007;DHT22;8620;51.168;4.154;2023-09-07T20:27:39;26.50;99.90
17007;DHT22;8620;51.168;4.154;2023-09-07T20:34:20;26.20;99.90
17007;DHT22;8620;51.168;4.154;2023-09-07T20:37:06;25.70;99.90
17007;DHT22;8620;51.168;4.154;2023-09-07T20:43:59;25.60;99.90
17007;DHT22;8620;51.168;4.154;2023-09-07T20:46:51;25.50;99.90
17007;DHT22;8620;51.168;4.154;2023-09-07T20:50:15;25.60;99.90
17007;DHT22;8620;51.168;4.154;2023-09-07T20:53:15;25.70;99.90
17007;DHT22;8620;51.168;4.154;2023-09-07T20:56:34;25.80;99.90
